sensor_id;sensor_type;location;lat;lon;timestamp;pressure;altitude;pressure_sealevel;temperature;humidity
13594;BME280;6449;47.666;9.160;2023-04-04T00:01:08;97518.53;;;3.55;91.58
13594;BME280;6449;47.666;9.160;2023-04-04T00:06:01;97518.50;;;3.33;94.79
13594;BME280;6449;47.666;9.160;2023-04-04T00:15:49;97505.88;;;3.24;98.60
13594;BME280;6449;47.666;9.160;2023-04-04T00:20:43;97505.03;;;3.00;97.09
13594;BME280;6449;47.666;9.160;2023-04-04T00:25:36;97506.84;;;3.22;97.32
13594;BME280;6449;47.666;9.160;2023-04-04T00:30:30;97502.97;;;3.10;94.64
13594;BME280;6449;47.666;9.160;2023-04-04T00:35:25;97500.59;;;3.04;96.77
13594;BME280;6449;47.666;9.160;2023-04-04T00:40:19;97495.06;;;3.13;95.56
13594;BME280;6449;47.666;9.160;2023-04-04T00:45:12;97491.94;;;3.03;94.42
13594;BME280;6449;47.666;9.160;2023-04-04T00:50:07;97498.00;;;3.04;97.16
13594;BME280;6449;47.666;9.160;2023-04-04T00:55:04;97490.44;;;2.98;93.70
13594;BME280;6449;47.666;9.160;2023-04-04T00:59:59;97492.75;;;3.05;95.41
13594;BME280;6449;47.666;9.160;2023-04-04T01:04:55;97487.06;;;2.96;93.60
13594;BME280;6449;47.666;9.160;2023-04-04T01:09:49;97490.88;;;2.85;96.99
13594;BME280;6449;47.666;9.160;2023-04-04T01:14:44;97487.06;;;2.96;94.54
13594;BME280;6449;47.666;9.160;2023-04-04T01:19:48;97476.78;;;2.93;95.48
13594;BME280;6449;47.666;9.160;2023-04-04T01:24:45;97485.31;;;2.71;97.38
13594;BME280;6449;47.666;9.160;2023-04-04T01:29:42;97488.56;;;2.78;96.06
13594;BME280;6449;47.666;9.160;2023-04-04T01:34:43;97475.16;;;2.67;92.94
13594;BME280;6449;47.666;9.160;2023-04-04T01:39:46;97488.03;;;2.68;95.12
13594;BME280;6449;47.666;9.160;2023-04-04T01:44:43;97485.31;;;2.71;97.86
13594;BME280;6449;47.666;9.160;2023-04-04T01:49:36;97480.66;;;2.82;93.34
13594;BME280;6449;47.666;9.160;2023-04-04T01:54:30;97483.78;;;2.67;93.80
13594;BME280;6449;47.666;9.160;2023-04-04T01:59:25;97489.19;;;2.59;94.75
13594;BME280;6449;47.666;9.160;2023-04-04T02:04:19;97496.66;;;2.69;96.64
13594;BME280;6449;47.666;9.160;2023-04-04T02:09:13;97489.16;;;2.61;93.74
13594;BME280;6449;47.666;9.160;2023-04-04T02:14:06;97484.91;;;2.58;93.56
13594;BME280;6449;47.666;9.160;2023-04-04T02:19:01;97486.34;;;2.67;94.17
13594;BME280;6449;47.666;9.160;2023-04-04T02:23:56;97484.56;;;2.18;94.00
13594;BME280;6449;47.666;9.160;2023-04-04T02:28:49;97491.75;;;2.09;94.87
13594;BME280;6449;47.666;9.160;2023-04-04T02:33:43;97476.66;;;2.22;98.23
13594;BME280;6449;47.666;9.160;2023-04-04T02:38:37;97482.53;;;2.52;99.77
13594;BME280;6449;47.666;9.160;2023-04-04T02:43:32;97471.44;;;2.49;100.00
13594;BME280;6449;47.666;9.160;2023-04-04T02:48:25;97479.16;;;2.25;100.00
13594;BME280;6449;47.666;9.160;2023-04-04T02:53:21;97465.41;;;2.23;96.48
13594;BME280;6449;47.666;9.160;2023-04-04T02:58:14;97465.16;;;2.31;98.22
13594;BME280;6449;47.666;9.160;2023-04-04T03:03:09;97469.50;;;2.04;100.00
13594;BME280;6449;47.666;9.160;2023-04-04T03:08:03;97476.09;;;2.13;100.00
13594;BME280;6449;47.666;9.160;2023-04-04T03:12:57;97467.22;;;1.95;96.91
13594;BME280;6449;47.666;9.160;2023-04-04T03:17:51;97473.44;;;2.16;100.00
13594;BME280;6449;47.666;9.160;2023-04-04T03:22:46;97470.22;;;2.09;100.00
13594;BME280;6449;47.666;9.160;2023-04-04T03:27:40;97473.44;;;2.16;100.00
13594;BME280;6449;47.666;9.160;2023-04-04T03:32:34;97462.59;;;2.31;100.00
13594;BME280;6449;47.666;9.160;2023-04-04T03:37:28;97469.59;;;2.27;100.00
13594;BME280;6449;47.666;9.160;2023-04-04T03:42:23;97468.53;;;1.81;97.51
13594;BME280;6449;47.666;9.160;2023-04-04T03:47:17;97462.78;;;1.72;100.00
13594;BME280;6449;47.666;9.160;2023-04-04T03:52:11;97468.97;;;1.94;100.00
13594;BME280;6449;47.666;9.160;2023-04-04T03:57:05;97479.81;;;2.05;100.00
13594;BME280;6449;47.666;9.160;2023-04-04T04:01:59;97471.03;;;2.36;100.00
13594;BME280;6449;47.666;9.160;2023-04-04T04:06:53;97470.78;;;2.17;100.00
13594;BME280;6449;47.666;9.160;2023-04-04T04:11:46;97483.00;;;1.87;100.00
13594;BME280;6449;47.666;9.160;2023-04-04T04:16:40;97482.28;;;1.82;100.00
13594;BME280;6449;47.666;9.160;2023-04-04T04:21:34;97495.97;;;0.98;100.00
13594;BME280;6449;47.666;9.160;2023-04-04T04:26:28;97492.06;;;1.72;100.00
13594;BME280;6449;47.666;9.160;2023-04-04T04:31:21;97497.16;;;2.02;100.00
13594;BME280;6449;47.666;9.160;2023-04-04T04:36:15;97498.38;;;1.90;100.00
13594;BME280;6449;47.666;9.160;2023-04-04T04:41:09;97496.38;;;2.00;100.00
13594;BME280;6449;47.666;9.160;2023-04-04T04:46:03;97499.91;;;1.97;100.00
13594;BME280;6449;47.666;9.160;2023-04-04T04:50:56;97502.63;;;1.93;100.00
13594;BME280;6449;47.666;9.160;2023-04-04T04:55:49;97510.53;;;1.88;100.00
13594;BME280;6449;47.666;9.160;2023-04-04T05:00:44;97502.28;;;1.75;100.00
13594;BME280;6449;47.666;9.160;2023-04-04T05:05:38;97508.97;;;1.54;100.00
13594;BME280;6449;47.666;9.160;2023-04-04T05:10:31;97511.97;;;1.69;100.00
13594;BME280;6449;47.666;9.160;2023-04-04T05:15:25;97507.44;;;1.77;100.00
13594;BME280;6449;47.666;9.160;2023-04-04T05:20:21;97506.28;;;1.86;100.00
13594;BME280;6449;47.666;9.160;2023-04-04T05:25:15;97511.97;;;1.69;100.00
13594;BME280;6449;47.666;9.160;2023-04-04T05:30:09;97525.13;;;1.89;100.00
13594;BME280;6449;47.666;9.160;2023-04-04T05:40:20;97525.84;;;1.94;100.00
13594;BME280;6449;47.666;9.160;2023-04-04T05:45:13;97534.19;;;1.74;100.00
13594;BME280;6449;47.666;9.160;2023-04-04T05:50:10;97538.00;;;1.91;100.00
13594;BME280;6449;47.666;9.160;2023-04-04T05:55:05;97535.19;;;1.98;100.00
13594;BME280;6449;47.666;9.160;2023-04-04T06:00:00;97541.44;;;1.91;100.00
13594;BME280;6449;47.666;9.160;2023-04-04T06:04:53;97550.38;;;1.81;100.00
13594;BME280;6449;47.666;9.160;2023-04-04T06:09:46;97549.13;;;2.21;100.00
13594;BME280;6449;47.666;9.160;2023-04-04T06:14:40;97545.09;;;2.39;100.00
13594;BME280;6449;47.666;9.160;2023-04-04T06:19:35;97535.25;;;2.50;100.00
13594;BME280;6449;47.666;9.160;2023-04-04T06:24:28;97544.53;;;2.55;100.00
13594;BME280;6449;47.666;9.160;2023-04-04T06:29:22;97538.59;;;2.27;100.00
13594;BME280;6449;47.666;9.160;2023-04-04T06:34:17;97541.47;;;2.18;100.00
13594;BME280;6449;47.666;9.160;2023-04-04T06:39:15;97543.34;;;2.13;100.00
13594;BME280;6449;47.666;9.160;2023-04-04T06:44:08;97539.91;;;2.12;100.00
13594;BME280;6449;47.666;9.160;2023-04-04T06:49:02;97537.59;;;2.04;98.47
13594;BME280;6449;47.666;9.160;2023-04-04T06:59:04;97530.97;;;2.49;99.21
13594;BME280;6449;47.666;9.160;2023-04-04T07:03:57;97530.38;;;2.66;99.66
13594;BME280;6449;47.666;9.160;2023-04-04T07:08:51;97529.50;;;2.67;98.38
13594;BME280;6449;47.666;9.160;2023-04-04T07:13:45;97525.69;;;2.77;96.91
13594;BME280;6449;47.666;9.160;2023-04-04T07:18:40;97523.53;;;2.89;93.24
13594;BME280;6449;47.666;9.160;2023-04-04T07:23:33;97522.91;;;2.83;89.32
13594;BME280;6449;47.666;9.160;2023-04-04T07:28:27;97521.78;;;2.90;89.67
13594;BME280;6449;47.666;9.160;2023-04-04T07:33:20;97520.47;;;3.27;89.68
13594;BME280;6449;47.666;9.160;2023-04-04T07:38:15;97522.94;;;3.06;91.87
13594;BME280;6449;47.666;9.160;2023-04-04T07:43:08;97522.72;;;3.36;91.59
13594;BME280;6449;47.666;9.160;2023-04-04T07:48:02;97507.03;;;3.62;88.71
13594;BME280;6449;47.666;9.160;2023-04-04T07:52:55;97506.25;;;3.60;86.23
13594;BME280;6449;47.666;9.160;2023-04-04T07:57:51;97499.44;;;3.80;82.27
13594;BME280;6449;47.666;9.160;2023-04-04T08:02:45;97506.78;;;4.12;82.33
13594;BME280;6449;47.666;9.160;2023-04-04T08:07:39;97490.47;;;4.31;82.18
13594;BME280;6449;47.666;9.160;2023-04-04T08:12:33;97498.19;;;4.53;81.14
13594;BME280;6449;47.666;9.160;2023-04-04T08:17:28;97495.69;;;4.71;79.53
13594;BME280;6449;47.666;9.160;2023-04-04T08:22:22;97498.53;;;4.65;77.41
13594;BME280;6449;47.666;9.160;2023-04-04T08:27:15;97486.28;;;4.49;72.89
13594;BME280;6449;47.666;9.160;2023-04-04T08:32:09;97488.16;;;4.45;72.51
13594;BME280;6449;47.666;9.160;2023-04-04T08:37:03;97485.81;;;4.80;74.44
13594;BME280;6449;47.666;9.160;2023-04-04T08:42:03;97479.16;;;4.93;72.98
13594;BME280;6449;47.666;9.160;2023-04-04T08:46:59;97488.03;;;5.08;74.79
13594;BME280;6449;47.666;9.160;2023-04-04T08:51:57;97473.38;;;5.44;71.21
13594;BME280;6449;47.666;9.160;2023-04-04T08:56:53;97481.09;;;5.46;69.05
13594;BME280;6449;47.666;9.160;2023-04-04T09:01:47;97472.22;;;5.69;66.21
13594;BME280;6449;47.666;9.160;2023-04-04T09:06:43;97482.34;;;5.75;69.37
13594;BME280;6449;47.666;9.160;2023-04-04T09:11:39;97475.75;;;5.87;65.52
13594;BME280;6449;47.666;9.160;2023-04-04T09:16:34;97457.63;;;5.66;63.37
13594;BME280;6449;47.666;9.160;2023-04-04T09:21:27;97462.47;;;6.10;65.93
13594;BME280;6449;47.666;9.160;2023-04-04T09:26:25;97465.75;;;5.96;64.60
13594;BME280;6449;47.666;9.160;2023-04-04T09:31:18;97460.94;;;6.06;62.76
13594;BME280;6449;47.666;9.160;2023-04-04T09:41:20;97454.53;;;6.30;60.85
13594;BME280;6449;47.666;9.160;2023-04-04T09:51:11;97448.91;;;6.73;59.28
13594;BME280;6449;47.666;9.160;2023-04-04T10:01:13;97452.28;;;7.08;59.35
13594;BME280;6449;47.666;9.160;2023-04-04T10:06:08;97435.84;;;6.57;55.69
13594;BME280;6449;47.666;9.160;2023-04-04T10:11:04;97452.31;;;6.91;59.08
13594;BME280;6449;47.666;9.160;2023-04-04T10:16:04;97445.94;;;6.96;56.51
13594;BME280;6449;47.666;9.160;2023-04-04T10:21:00;97455.81;;;7.07;59.43
13594;BME280;6449;47.666;9.160;2023-04-04T10:26:06;97447.00;;;7.09;55.50
13594;BME280;6449;47.666;9.160;2023-04-04T10:31:07;97448.69;;;7.11;57.68
13594;BME280;6449;47.666;9.160;2023-04-04T10:36:11;97451.56;;;7.38;60.07
13594;BME280;6449;47.666;9.160;2023-04-04T10:41:06;97440.88;;;7.42;56.46
13594;BME280;6449;47.666;9.160;2023-04-04T10:51:10;97428.63;;;6.95;54.51
13594;BME280;6449;47.666;9.160;2023-04-04T10:56:04;97434.38;;;7.18;56.75
13594;BME280;6449;47.666;9.160;2023-04-04T11:00:58;97432.81;;;7.31;54.34
13594;BME280;6449;47.666;9.160;2023-04-04T11:05:52;97428.84;;;7.24;52.92
13594;BME280;6449;47.666;9.160;2023-04-04T11:10:54;97427.00;;;7.26;53.15
13594;BME280;6449;47.666;9.160;2023-04-04T11:15:54;97420.59;;;7.31;50.71
13594;BME280;6449;47.666;9.160;2023-04-04T11:20:48;97408.31;;;7.49;54.86
13594;BME280;6449;47.666;9.160;2023-04-04T11:25:50;97421.59;;;7.76;52.29
13594;BME280;6449;47.666;9.160;2023-04-04T11:30:45;97409.16;;;7.66;49.61
13594;BME280;6449;47.666;9.160;2023-04-04T11:35:48;97419.34;;;7.54;53.55
13594;BME280;6449;47.666;9.160;2023-04-04T11:40:52;97401.31;;;7.50;51.13
13594;BME280;6449;47.666;9.160;2023-04-04T11:45:48;97405.38;;;7.55;50.97
13594;BME280;6449;47.666;9.160;2023-04-04T11:50:45;97399.06;;;7.59;53.50
13594;BME280;6449;47.666;9.160;2023-04-04T11:55:42;97404.09;;;7.78;51.02
13594;BME280;6449;47.666;9.160;2023-04-04T12:00:38;97393.94;;;7.42;48.00
13594;BME280;6449;47.666;9.160;2023-04-04T12:05:34;97384.31;;;7.74;46.02
13594;BME280;6449;47.666;9.160;2023-04-04T12:10:29;97387.09;;;7.71;48.74
13594;BME280;6449;47.666;9.160;2023-04-04T12:15:26;97392.31;;;7.55;47.63
13594;BME280;6449;47.666;9.160;2023-04-04T12:20:22;97390.63;;;7.70;49.26
13594;BME280;6449;47.666;9.160;2023-04-04T12:25:18;97391.66;;;7.98;50.25
13594;BME280;6449;47.666;9.160;2023-04-04T12:30:14;97393.91;;;7.74;48.52
13594;BME280;6449;47.666;9.160;2023-04-04T12:35:10;97390.88;;;7.66;52.47
13594;BME280;6449;47.666;9.160;2023-04-04T12:40:06;97395.44;;;7.62;49.85
13594;BME280;6449;47.666;9.160;2023-04-04T12:45:01;97391.22;;;7.75;49.00
13594;BME280;6449;47.666;9.160;2023-04-04T12:49:56;97400.66;;;7.62;51.58
13594;BME280;6449;47.666;9.160;2023-04-04T12:54:50;97400.91;;;7.73;53.59
13594;BME280;6449;47.666;9.160;2023-04-04T13:00:02;97405.94;;;7.76;54.52
13594;BME280;6449;47.666;9.160;2023-04-04T13:04:58;97408.06;;;7.70;54.18
13594;BME280;6449;47.666;9.160;2023-04-04T13:09:54;97391.44;;;7.41;52.50
13594;BME280;6449;47.666;9.160;2023-04-04T13:15:00;97402.75;;;7.40;51.82
13594;BME280;6449;47.666;9.160;2023-04-04T13:19:54;97394.44;;;7.33;49.44
13594;BME280;6449;47.666;9.160;2023-04-04T13:29:54;97386.44;;;7.20;50.23
13594;BME280;6449;47.666;9.160;2023-04-04T13:34:49;97387.53;;;7.48;54.39
13594;BME280;6449;47.666;9.160;2023-04-04T13:39:42;97389.06;;;7.52;55.13
13594;BME280;6449;47.666;9.160;2023-04-04T13:44:35;97375.25;;;7.50;52.39
13594;BME280;6449;47.666;9.160;2023-04-04T13:49:29;97379.28;;;7.55;54.23
13594;BME280;6449;47.666;9.160;2023-04-04T13:54:24;97378.88;;;7.47;50.40
13594;BME280;6449;47.666;9.160;2023-04-04T14:04:17;97381.28;;;7.50;50.06
13594;BME280;6449;47.666;9.160;2023-04-04T14:09:15;97374.00;;;7.25;48.07
13594;BME280;6449;47.666;9.160;2023-04-04T14:14:10;97375.91;;;7.53;54.11
13594;BME280;6449;47.666;9.160;2023-04-04T14:19:03;97386.00;;;7.75;53.14
13594;BME280;6449;47.666;9.160;2023-04-04T14:23:57;97377.00;;;7.65;49.15
13594;BME280;6449;47.666;9.160;2023-04-04T14:28:50;97374.84;;;7.57;51.73
13594;BME280;6449;47.666;9.160;2023-04-04T14:33:45;97373.72;;;7.61;49.78
13594;BME280;6449;47.666;9.160;2023-04-04T14:43:50;97376.84;;;7.68;50.57
13594;BME280;6449;47.666;9.160;2023-04-04T14:48:46;97375.47;;;7.61;52.50
13594;BME280;6449;47.666;9.160;2023-04-04T14:58:32;97370.03;;;7.34;50.56
13594;BME280;6449;47.666;9.160;2023-04-04T15:03:26;97371.63;;;7.52;52.27
13594;BME280;6449;47.666;9.160;2023-04-04T15:08:21;97352.34;;;7.55;47.83
13594;BME280;6449;47.666;9.160;2023-04-04T15:18:20;97376.84;;;7.68;51.37
13594;BME280;6449;47.666;9.160;2023-04-04T15:23:13;97371.63;;;7.68;50.82
13594;BME280;6449;47.666;9.160;2023-04-04T15:33:15;97359.75;;;7.63;48.80
13594;BME280;6449;47.666;9.160;2023-04-04T15:38:09;97363.28;;;7.61;48.99
13594;BME280;6449;47.666;9.160;2023-04-04T15:43:02;97363.13;;;7.49;49.39
13594;BME280;6449;47.666;9.160;2023-04-04T15:47:55;97363.56;;;7.57;48.84
13594;BME280;6449;47.666;9.160;2023-04-04T15:52:50;97361.34;;;7.65;49.05
13594;BME280;6449;47.666;9.160;2023-04-04T15:57:44;97365.28;;;7.72;49.43
13594;BME280;6449;47.666;9.160;2023-04-04T16:02:38;97360.53;;;7.49;49.61
13594;BME280;6449;47.666;9.160;2023-04-04T16:07:32;97366.44;;;7.37;47.91
13594;BME280;6449;47.666;9.160;2023-04-04T16:12:27;97363.56;;;7.25;49.73
13594;BME280;6449;47.666;9.160;2023-04-04T16:22:22;97368.78;;;7.41;50.51
13594;BME280;6449;47.666;9.160;2023-04-04T16:27:15;97372.56;;;7.35;51.82
13594;BME280;6449;47.666;9.160;2023-04-04T16:32:10;97365.84;;;7.31;49.77
13594;BME280;6449;47.666;9.160;2023-04-04T16:37:04;97369.78;;;7.23;48.84
13594;BME280;6449;47.666;9.160;2023-04-04T16:41:57;97363.22;;;7.16;50.32
13594;BME280;6449;47.666;9.160;2023-04-04T16:46:53;97370.72;;;7.22;49.21
13594;BME280;6449;47.666;9.160;2023-04-04T16:51:51;97371.16;;;7.14;51.27
13594;BME280;6449;47.666;9.160;2023-04-04T16:56:44;97374.34;;;7.03;52.31
13594;BME280;6449;47.666;9.160;2023-04-04T17:01:44;97385.00;;;6.99;54.16
13594;BME280;6449;47.666;9.160;2023-04-04T17:06:40;97382.22;;;7.02;54.97
13594;BME280;6449;47.666;9.160;2023-04-04T17:11:34;97378.41;;;6.92;53.13
13594;BME280;6449;47.666;9.160;2023-04-04T17:16:29;97382.66;;;6.94;52.94
13594;BME280;6449;47.666;9.160;2023-04-04T17:21:24;97390.66;;;6.74;53.26
13594;BME280;6449;47.666;9.160;2023-04-04T17:26:17;97382.09;;;6.72;54.50
13594;BME280;6449;47.666;9.160;2023-04-04T17:31:14;97384.44;;;6.76;55.35
13594;BME280;6449;47.666;9.160;2023-04-04T17:36:08;97379.88;;;6.64;53.96
13594;BME280;6449;47.666;9.160;2023-04-04T17:41:14;97374.75;;;6.63;56.17
13594;BME280;6449;47.666;9.160;2023-04-04T17:46:08;97373.69;;;6.49;55.95
13594;BME280;6449;47.666;9.160;2023-04-04T17:51:03;97374.03;;;6.43;56.65
13594;BME280;6449;47.666;9.160;2023-04-04T17:56:28;97377.19;;;6.50;57.25
13594;BME280;6449;47.666;9.160;2023-04-04T18:08:11;97380.09;;;6.26;60.10
13594;BME280;6449;47.666;9.160;2023-04-04T18:13:07;97377.41;;;6.28;57.90
13594;BME280;6449;47.666;9.160;2023-04-04T18:18:07;97388.38;;;6.17;59.67
13594;BME280;6449;47.666;9.160;2023-04-04T18:23:02;97388.69;;;6.11;56.86
13594;BME280;6449;47.666;9.160;2023-04-04T18:28:01;97399.69;;;6.16;60.21
13594;BME280;6449;47.666;9.160;2023-04-04T18:33:06;97397.41;;;6.10;56.75
13594;BME280;6449;47.666;9.160;2023-04-04T18:38:08;97403.22;;;6.15;60.83
13594;BME280;6449;47.666;9.160;2023-04-04T18:43:06;97412.72;;;5.99;59.95
13594;BME280;6449;47.666;9.160;2023-04-04T18:47:59;97421.09;;;5.87;62.71
13594;BME280;6449;47.666;9.160;2023-04-04T18:53:38;97429.56;;;5.90;61.04
13594;BME280;6449;47.666;9.160;2023-04-04T18:58:40;97432.56;;;5.83;64.44
13594;BME280;6449;47.666;9.160;2023-04-04T19:03:40;97431.94;;;5.77;61.86
13594;BME280;6449;47.666;9.160;2023-04-04T19:09:05;97433.44;;;5.64;61.12
13594;BME280;6449;47.666;9.160;2023-04-04T19:19:33;97437.09;;;5.60;62.78
13594;BME280;6449;47.666;9.160;2023-04-04T19:24:27;97442.41;;;5.40;63.12
13594;BME280;6449;47.666;9.160;2023-04-04T19:29:26;97441.91;;;5.32;64.89
13594;BME280;6449;47.666;9.160;2023-04-04T19:34:23;97442.69;;;5.34;67.87
13594;BME280;6449;47.666;9.160;2023-04-04T19:39:18;97435.56;;;5.37;64.46
13594;BME280;6449;47.666;9.160;2023-04-04T19:44:20;97442.97;;;5.28;64.91
13594;BME280;6449;47.666;9.160;2023-04-04T19:49:16;97443.22;;;5.21;68.19
13594;BME280;6449;47.666;9.160;2023-04-04T19:54:12;97441.19;;;5.09;64.46
13594;BME280;6449;47.666;9.160;2023-04-04T20:07:15;97452.22;;;4.95;72.02
13594;BME280;6449;47.666;9.160;2023-04-04T20:11:55;97445.03;;;5.00;70.05
13594;BME280;6449;47.666;9.160;2023-04-04T20:17:02;97444.06;;;5.03;69.31
13594;BME280;6449;47.666;9.160;2023-04-04T20:22:52;97460.03;;;5.14;71.70
13594;BME280;6449;47.666;9.160;2023-04-04T20:27:46;97453.81;;;4.98;69.73
13594;BME280;6449;47.666;9.160;2023-04-04T20:32:43;97451.50;;;5.11;69.78
13594;BME280;6449;47.666;9.160;2023-04-04T20:38:06;97448.00;;;4.93;68.98
13594;BME280;6449;47.666;9.160;2023-04-04T20:43:01;97452.69;;;4.85;69.61
13594;BME280;6449;47.666;9.160;2023-04-04T20:54:11;97469.44;;;4.57;72.43
13594;BME280;6449;47.666;9.160;2023-04-04T20:59:33;97471.94;;;4.60;71.80
13594;BME280;6449;47.666;9.160;2023-04-04T21:04:37;97461.91;;;4.71;69.85
13594;BME280;6449;47.666;9.160;2023-04-04T21:09:33;97463.09;;;4.64;70.90
13594;BME280;6449;47.666;9.160;2023-04-04T21:14:38;97464.97;;;4.40;73.56
13594;BME280;6449;47.666;9.160;2023-04-04T21:19:31;97475.88;;;4.28;77.61
13594;BME280;6449;47.666;9.160;2023-04-04T21:24:34;97465.69;;;4.24;75.87
13594;BME280;6449;47.666;9.160;2023-04-04T21:29:28;97460.16;;;4.31;75.84
13594;BME280;6449;47.666;9.160;2023-04-04T21:34:32;97470.88;;;4.24;76.06
13594;BME280;6449;47.666;9.160;2023-04-04T21:39:32;97466.22;;;4.10;78.59
13594;BME280;6449;47.666;9.160;2023-04-04T21:44:30;97468.56;;;4.38;76.94
13594;BME280;6449;47.666;9.160;2023-04-04T21:49:30;97462.53;;;4.37;75.26
13594;BME280;6449;47.666;9.160;2023-04-04T21:54:24;97463.66;;;4.30;76.91
13594;BME280;6449;47.666;9.160;2023-04-04T21:59:18;97456.28;;;4.41;73.34
13594;BME280;6449;47.666;9.160;2023-04-04T22:04:14;97465.31;;;4.33;74.67
13594;BME280;6449;47.666;9.160;2023-04-04T22:09:07;97469.66;;;4.32;76.40
13594;BME280;6449;47.666;9.160;2023-04-04T22:14:01;97464.91;;;4.42;76.48
13594;BME280;6449;47.666;9.160;2023-04-04T22:19:17;97465.03;;;4.39;75.72
13594;BME280;6449;47.666;9.160;2023-04-04T22:24:14;97462.13;;;4.46;73.30
13594;BME280;6449;47.666;9.160;2023-04-04T22:29:09;97451.03;;;4.43;74.15
13594;BME280;6449;47.666;9.160;2023-04-04T22:34:03;97454.66;;;4.39;76.50
13594;BME280;6449;47.666;9.160;2023-04-04T22:39:07;97459.09;;;4.37;78.20
13594;BME280;6449;47.666;9.160;2023-04-04T22:44:02;97456.59;;;4.34;73.02
13594;BME280;6449;47.666;9.160;2023-04-04T22:48:56;97440.91;;;4.37;70.73
13594;BME280;6449;47.666;9.160;2023-04-04T22:53:58;97454.13;;;4.31;76.03
13594;BME280;6449;47.666;9.160;2023-04-04T22:59:01;97448.16;;;4.29;76.35
13594;BME280;6449;47.666;9.160;2023-04-04T23:03:59;97445.69;;;4.26;75.81
13594;BME280;6449;47.666;9.160;2023-04-04T23:08:53;97456.41;;;4.18;78.52
13594;BME280;6449;47.666;9.160;2023-04-04T23:13:46;97447.97;;;4.13;75.02
13594;BME280;6449;47.666;9.160;2023-04-04T23:18:41;97457.75;;;4.06;76.79
13594;BME280;6449;47.666;9.160;2023-04-04T23:23:36;97451.78;;;4.25;76.37
13594;BME280;6449;47.666;9.160;2023-04-04T23:28:33;97456.50;;;4.37;77.48
13594;BME280;6449;47.666;9.160;2023-04-04T23:33:29;97447.44;;;4.25;72.40
13594;BME280;6449;47.666;9.160;2023-04-04T23:38:24;97449.97;;;4.06;74.93
13594;BME280;6449;47.666;9.160;2023-04-04T23:43:18;97446.78;;;4.00;75.09
13594;BME280;6449;47.666;9.160;2023-04-04T23:48:11;97439.84;;;4.00;72.91
13594;BME280;6449;47.666;9.160;2023-04-04T23:53:05;97440.50;;;4.05;76.12
13594;BME280;6449;47.666;9.160;2023-04-04T23:58:00;97439.81;;;3.80;79.18
